createdAt,value
2018-08-08T00:00:28.323Z,95582.14
2018-08-08T00:02:57.270Z,95583.52
2018-08-08T00:05:25.944Z,95587.84
2018-08-08T00:07:54.662Z,95580.19
2018-08-08T00:10:23.354Z,95586.26
2018-08-08T00:12:51.991Z,95584.50
2018-08-08T00:15:20.623Z,95586.45
2018-08-08T00:17:49.299Z,95589.14
2018-08-08T00:20:18.002Z,95585.81
2018-08-08T00:22:46.653Z,95584.84
2018-08-08T00:25:15.913Z,95581.70
2018-08-08T00:27:44.868Z,95580.71
2018-08-08T00:30:14.671Z,95582.31
2018-08-08T00:32:43.719Z,95589.80
2018-08-08T00:35:12.350Z,95583.71
2018-08-08T00:37:41.064Z,95582.32
2018-08-08T00:40:12.235Z,95583.66
2018-08-08T00:42:41.343Z,95582.91
2018-08-08T00:45:12.343Z,95585.45
2018-08-08T00:47:41.826Z,95589.54
2018-08-08T00:50:12.011Z,95581.67
2018-08-08T00:52:41.254Z,95584.58
2018-08-08T00:55:10.377Z,95585.81
2018-08-08T00:57:39.556Z,95591.50
2018-08-08T01:00:10.309Z,95591.47
2018-08-08T01:02:39.016Z,95589.12
2018-08-08T01:05:09.915Z,95581.48
2018-08-08T01:07:38.698Z,95587.16
2018-08-08T01:10:08.094Z,95586.19
2018-08-08T01:12:36.767Z,95577.98
2018-08-08T01:15:07.273Z,95575.58
2018-08-08T01:17:36.119Z,95584.80
2018-08-08T01:20:06.206Z,95569.92
2018-08-08T01:22:34.967Z,95576.58
2018-08-08T01:25:03.730Z,95570.08
2018-08-08T01:27:32.370Z,95579.09
2018-08-08T01:30:01.016Z,95577.72
2018-08-08T01:32:29.655Z,95568.34
2018-08-08T01:34:58.327Z,95570.41
2018-08-08T01:37:26.919Z,95572.45
2018-08-08T01:39:55.558Z,95572.20
2018-08-08T01:42:24.198Z,95578.00
2018-08-08T01:44:52.822Z,95572.71
2018-08-08T01:47:21.462Z,95575.84
2018-08-08T01:49:50.142Z,95554.05
2018-08-08T01:52:18.766Z,95577.18
2018-08-08T01:54:47.394Z,95577.36
2018-08-08T01:57:16.011Z,95570.91
2018-08-08T01:59:44.624Z,95576.56
2018-08-08T02:02:13.259Z,95581.60
2018-08-08T02:04:41.863Z,95589.19
2018-08-08T02:07:10.544Z,95578.51
2018-08-08T02:09:39.207Z,95570.98
2018-08-08T02:12:07.991Z,95573.02
2018-08-08T02:14:36.646Z,95571.95
2018-08-08T02:17:05.315Z,95579.24
2018-08-08T02:19:33.926Z,95579.61
2018-08-08T02:22:02.578Z,95589.15
2018-08-08T02:24:31.236Z,95594.87
2018-08-08T02:26:59.863Z,95582.04
2018-08-08T02:29:28.534Z,95586.06
2018-08-08T02:31:57.159Z,95592.28
2018-08-08T02:34:25.787Z,95595.82
2018-08-08T02:36:54.420Z,95596.66
2018-08-08T02:39:23.090Z,95598.33
2018-08-08T02:41:51.751Z,95594.85
2018-08-08T02:44:20.396Z,95601.74
2018-08-08T02:46:49.006Z,95597.80
2018-08-08T02:49:17.658Z,95598.38
2018-08-08T02:51:46.274Z,95599.92
2018-08-08T02:54:14.958Z,95604.19
2018-08-08T02:56:43.605Z,95604.19
2018-08-08T02:59:12.319Z,95608.64
2018-08-08T03:01:40.950Z,95609.72
2018-08-08T03:04:09.663Z,95600.94
2018-08-08T03:06:38.300Z,95603.72
2018-08-08T03:09:09.634Z,95599.06
2018-08-08T03:11:38.304Z,95608.52
2018-08-08T03:14:07.431Z,95611.48
2018-08-08T03:16:36.292Z,95613.77
2018-08-08T03:19:04.945Z,95620.44
2018-08-08T03:21:33.614Z,95624.86
2018-08-08T03:24:02.278Z,95627.51
2018-08-08T03:26:30.986Z,95626.47
2018-08-08T03:28:59.589Z,95622.02
2018-08-08T03:31:28.203Z,95620.85
2018-08-08T03:33:56.848Z,95622.89
2018-08-08T03:36:25.515Z,95620.91
2018-08-08T03:38:54.171Z,95631.83
2018-08-08T03:41:22.851Z,95641.37
2018-08-08T03:43:51.471Z,95633.20
2018-08-08T03:46:20.206Z,95626.15
2018-08-08T03:48:48.829Z,95630.45
2018-08-08T03:51:17.445Z,95630.80
2018-08-08T03:53:46.160Z,95632.21
2018-08-08T03:56:14.838Z,95635.47
2018-08-08T03:58:43.447Z,95641.83
2018-08-08T04:01:12.055Z,95639.41
2018-08-08T04:03:40.766Z,95638.11
2018-08-08T04:06:09.373Z,95639.10
2018-08-08T04:08:38.010Z,95639.41
2018-08-08T04:11:06.621Z,95650.44
2018-08-08T04:13:35.296Z,95645.11
2018-08-08T04:16:03.914Z,95651.38
2018-08-08T04:18:32.540Z,95638.70
2018-08-08T04:21:01.240Z,95643.05
2018-08-08T04:23:29.887Z,95653.83
2018-08-08T04:25:58.554Z,95659.25
2018-08-08T04:28:27.182Z,95651.17
2018-08-08T04:30:55.876Z,95650.42
2018-08-08T04:33:24.499Z,95647.33
2018-08-08T04:35:53.412Z,95648.89
2018-08-08T04:38:22.108Z,95647.55
2018-08-08T04:40:50.856Z,95656.78
2018-08-08T04:43:19.523Z,95648.59
2018-08-08T04:45:48.215Z,95654.25
2018-08-08T04:48:16.887Z,95650.64
2018-08-08T04:50:45.540Z,95651.60
2018-08-08T04:53:14.178Z,95656.49
2018-08-08T04:55:42.887Z,95655.17
2018-08-08T04:58:11.575Z,95654.77
2018-08-08T05:00:40.250Z,95657.35
2018-08-08T05:03:08.901Z,95657.33
2018-08-08T05:05:37.563Z,95649.84
2018-08-08T05:08:06.265Z,95658.27
2018-08-08T05:10:34.975Z,95655.67
2018-08-08T05:13:03.633Z,95652.73
2018-08-08T05:15:32.280Z,95657.77
2018-08-08T05:18:01.041Z,95658.80
2018-08-08T05:20:29.739Z,95655.92
2018-08-08T05:22:58.372Z,95653.84
2018-08-08T05:25:27.108Z,95653.12
2018-08-08T05:27:55.760Z,95650.88
2018-08-08T05:30:24.483Z,95655.09
2018-08-08T05:32:53.221Z,95652.42
2018-08-08T05:35:21.954Z,95646.76
2018-08-08T05:37:50.650Z,95649.63
2018-08-08T05:40:21.630Z,95651.63
2018-08-08T05:42:52.398Z,95661.95
2018-08-08T05:45:21.705Z,95655.45
2018-08-08T05:47:52.724Z,95656.52
2018-08-08T05:50:21.466Z,95659.91
2018-08-08T05:52:50.237Z,95659.20
2018-08-08T05:55:20.011Z,95662.52
2018-08-08T05:57:48.814Z,95667.64
2018-08-08T06:00:23.195Z,95662.70
2018-08-08T06:02:52.013Z,95671.67
2018-08-08T06:05:20.711Z,95675.56
2018-08-08T06:07:49.422Z,95680.37
2018-08-08T06:10:18.123Z,95673.16
2018-08-08T06:12:46.799Z,95672.41
2018-08-08T06:15:16.635Z,95673.22
2018-08-08T06:17:45.427Z,95666.33
2018-08-08T06:20:17.307Z,95666.70
2018-08-08T06:22:46.793Z,95665.86
2018-08-08T06:25:15.618Z,95673.34
2018-08-08T06:27:44.714Z,95672.56
2018-08-08T06:30:17.628Z,95670.32
2018-08-08T06:32:46.414Z,95659.59
2018-08-08T06:35:16.271Z,95671.51
2018-08-08T06:37:44.922Z,95668.59
2018-08-08T06:40:14.602Z,95668.84
2018-08-08T06:42:43.879Z,95675.84
2018-08-08T06:45:14.132Z,95678.44
2018-08-08T06:47:42.984Z,95668.02
2018-08-08T06:50:12.536Z,95666.97
2018-08-08T06:52:41.508Z,95673.52
2018-08-08T06:55:12.920Z,95667.48
2018-08-08T06:57:41.765Z,95673.63
2018-08-08T07:00:18.776Z,95672.48
2018-08-08T07:02:47.524Z,95680.30
2018-08-08T07:05:17.217Z,95673.80
2018-08-08T07:07:46.269Z,95676.93
2018-08-08T07:10:14.976Z,95678.47
2018-08-08T07:12:43.717Z,95680.38
2018-08-08T07:15:13.995Z,95667.52
2018-08-08T07:17:42.734Z,95675.83
2018-08-08T07:20:12.624Z,95678.47
2018-08-08T07:22:41.365Z,95676.22
2018-08-08T07:25:11.983Z,95670.57
2018-08-08T07:27:40.692Z,95676.07
2018-08-08T07:30:12.512Z,95684.42
2018-08-08T07:32:41.262Z,95673.50
2018-08-08T07:35:10.721Z,95676.61
2018-08-08T07:37:39.795Z,95670.92
2018-08-08T07:40:10.301Z,95675.73
2018-08-08T07:42:39.707Z,95672.13
2018-08-08T07:45:10.612Z,95676.58
2018-08-08T07:47:39.343Z,95680.42
2018-08-08T07:50:09.264Z,95680.23
2018-08-08T07:52:38.016Z,95675.23
2018-08-08T07:55:07.544Z,95678.15
2018-08-08T07:57:36.173Z,95673.21
2018-08-08T08:00:09.152Z,95681.57
2018-08-08T08:02:37.932Z,95676.62
2018-08-08T08:05:06.678Z,95679.13
2018-08-08T08:07:35.359Z,95680.16
2018-08-08T08:10:04.450Z,95671.81
2018-08-08T08:12:33.116Z,95679.29
2018-08-08T08:15:01.787Z,95679.23
2018-08-08T08:17:30.658Z,95676.88
2018-08-08T08:19:59.292Z,95674.70
2018-08-08T08:22:27.980Z,95677.17
2018-08-08T08:24:56.763Z,95674.71
2018-08-08T08:27:25.822Z,95676.05
2018-08-08T08:29:54.532Z,95674.23
2018-08-08T08:32:23.152Z,95672.36
2018-08-08T08:34:51.798Z,95672.05
2018-08-08T08:37:20.534Z,95668.81
2018-08-08T08:39:49.458Z,95669.58
2018-08-08T08:42:18.151Z,95670.66
2018-08-08T08:44:46.911Z,95672.77
2018-08-08T08:47:15.515Z,95662.45
2018-08-08T08:49:44.434Z,95666.95
2018-08-08T08:52:13.158Z,95668.64
2018-08-08T08:54:41.840Z,95670.84
2018-08-08T08:57:10.443Z,95666.17
2018-08-08T08:59:39.205Z,95670.49
2018-08-08T09:02:07.834Z,95665.36
2018-08-08T09:04:36.511Z,95664.44
2018-08-08T09:07:05.262Z,95668.55
2018-08-08T09:09:33.921Z,95668.38
2018-08-08T09:12:02.586Z,95667.56
2018-08-08T09:14:31.235Z,95663.23
2018-08-08T09:16:59.906Z,95663.71
2018-08-08T09:19:28.531Z,95659.67
2018-08-08T09:21:57.236Z,95662.88
2018-08-08T09:24:25.896Z,95657.91
2018-08-08T09:26:54.595Z,95667.08
2018-08-08T09:29:23.295Z,95661.32
2018-08-08T09:31:51.950Z,95656.20
2018-08-08T09:34:20.666Z,95651.09
2018-08-08T09:36:49.714Z,95652.98
2018-08-08T09:39:18.376Z,95648.59
2018-08-08T09:41:47.068Z,95648.28
2018-08-08T09:44:15.754Z,95644.91
2018-08-08T09:46:44.417Z,95643.16
2018-08-08T09:49:13.042Z,95646.59
2018-08-08T09:51:41.775Z,95640.45
2018-08-08T09:54:10.463Z,95634.41
2018-08-08T09:56:39.123Z,95637.11
2018-08-08T09:59:07.975Z,95630.31
2018-08-08T10:01:41.764Z,95634.93
2018-08-08T10:04:15.656Z,95635.11
2018-08-08T10:06:44.332Z,95629.19
2018-08-08T10:09:13.129Z,95626.37
2018-08-08T10:11:41.988Z,95627.28
2018-08-08T10:14:10.782Z,95614.08
2018-08-08T10:16:39.498Z,95618.34
2018-08-08T10:19:08.243Z,95610.63
2018-08-08T10:21:36.896Z,95615.06
2018-08-08T10:24:05.617Z,95614.92
2018-08-08T10:26:34.308Z,95618.14
2018-08-08T10:29:02.920Z,95616.98
2018-08-08T10:31:31.514Z,95604.39
2018-08-08T10:34:00.191Z,95609.71
2018-08-08T10:36:28.942Z,95603.87
2018-08-08T10:38:57.562Z,95600.98
2018-08-08T10:41:26.226Z,95598.41
2018-08-08T10:43:55.648Z,95595.27
2018-08-08T10:46:24.251Z,95596.05
2018-08-08T10:48:52.905Z,95602.20
2018-08-08T10:51:21.544Z,95603.86
2018-08-08T10:53:50.175Z,95595.92
2018-08-08T10:56:18.837Z,95603.02
2018-08-08T10:58:47.423Z,95602.06
2018-08-08T11:01:16.290Z,95598.78
2018-08-08T11:03:44.948Z,95600.69
2018-08-08T11:06:13.645Z,95601.27
2018-08-08T11:08:42.394Z,95601.23
2018-08-08T11:11:10.995Z,95603.55
2018-08-08T11:13:39.701Z,95601.34
2018-08-08T11:16:08.416Z,95594.29
2018-08-08T11:18:37.077Z,95588.85
2018-08-08T11:21:05.728Z,95583.14
2018-08-08T11:23:34.354Z,95588.56
2018-08-08T11:26:03.024Z,95576.62
2018-08-08T11:28:31.695Z,95583.62
2018-08-08T11:31:00.461Z,95584.14
2018-08-08T11:33:29.081Z,95582.57
2018-08-08T11:35:57.751Z,95590.64
2018-08-08T11:38:26.453Z,95587.47
2018-08-08T11:40:55.083Z,95576.00
2018-08-08T11:43:23.744Z,95576.42
2018-08-08T11:45:52.409Z,95591.00
2018-08-08T11:48:21.050Z,95584.84
2018-08-08T11:50:49.655Z,95602.59
2018-08-08T11:53:18.285Z,95594.95
2018-08-08T11:55:46.827Z,95596.06
2018-08-08T11:58:15.449Z,95604.48
2018-08-08T12:00:44.100Z,95597.78
2018-08-08T12:03:12.691Z,95593.98
2018-08-08T12:05:41.351Z,95598.02
2018-08-08T12:08:09.959Z,95600.13
2018-08-08T12:10:38.552Z,95595.20
2018-08-08T12:13:07.242Z,95590.02
2018-08-08T12:15:35.897Z,95575.38
2018-08-08T12:18:04.626Z,95592.22
2018-08-08T12:20:33.281Z,95584.52
2018-08-08T12:23:01.960Z,95577.91
2018-08-08T12:25:30.671Z,95578.62
2018-08-08T12:27:59.313Z,95577.16
2018-08-08T12:30:27.942Z,95569.05
2018-08-08T12:32:56.576Z,95567.91
2018-08-08T12:35:25.373Z,95581.34
2018-08-08T12:37:53.973Z,95577.45
2018-08-08T12:40:22.654Z,95578.84
2018-08-08T12:42:51.355Z,95573.10
2018-08-08T12:45:20.030Z,95556.99
2018-08-08T12:47:48.683Z,95565.36
2018-08-08T12:50:17.313Z,95560.48
2018-08-08T12:52:45.946Z,95567.00
2018-08-08T12:55:14.576Z,95573.67
2018-08-08T12:57:43.224Z,95561.11
2018-08-08T13:00:13.268Z,95574.43
2018-08-08T13:02:41.921Z,95561.42
2018-08-08T13:05:10.679Z,95564.61
2018-08-08T13:07:39.377Z,95569.27
2018-08-08T13:10:08.135Z,95566.73
2018-08-08T13:12:36.775Z,95564.69
2018-08-08T13:15:06.423Z,95552.94
2018-08-08T13:17:35.052Z,95552.75
2018-08-08T13:20:03.861Z,95566.69
2018-08-08T13:22:32.505Z,95569.95
2018-08-08T13:25:01.125Z,95555.40
2018-08-08T13:27:29.839Z,95559.22
2018-08-08T13:29:58.440Z,95562.12
2018-08-08T13:32:27.271Z,95563.18
2018-08-08T13:34:55.911Z,95565.11
2018-08-08T13:37:24.579Z,95551.45
2018-08-08T13:39:53.207Z,95554.47
2018-08-08T13:42:21.952Z,95566.95
2018-08-08T13:44:50.588Z,95570.13
2018-08-08T13:47:19.289Z,95567.53
2018-08-08T13:49:47.929Z,95560.36
2018-08-08T13:52:16.602Z,95571.80
2018-08-08T13:54:45.179Z,95562.03
2018-08-08T13:57:13.806Z,95561.18
2018-08-08T13:59:42.518Z,95560.00
2018-08-08T14:02:11.187Z,95554.59
2018-08-08T14:04:39.867Z,95558.55
2018-08-08T14:07:08.768Z,95556.75
2018-08-08T14:09:37.425Z,95557.39
2018-08-08T14:12:06.157Z,95556.75
2018-08-08T14:14:35.163Z,95560.47
2018-08-08T14:17:04.300Z,95561.58
2018-08-08T14:19:32.890Z,95571.31
2018-08-08T14:22:01.527Z,95564.87
2018-08-08T14:24:30.163Z,95568.62
2018-08-08T14:26:58.875Z,95561.73
2018-08-08T14:29:27.545Z,95559.36
2018-08-08T14:31:56.195Z,95561.63
2018-08-08T14:34:24.814Z,95560.53
2018-08-08T14:36:53.454Z,95557.92
2018-08-08T14:39:22.106Z,95555.31
2018-08-08T14:41:50.801Z,95551.80
2018-08-08T14:44:19.495Z,95557.32
2018-08-08T14:46:48.468Z,95560.05
2018-08-08T14:49:17.120Z,95558.48
2018-08-08T14:51:46.005Z,95554.49
2018-08-08T14:54:14.616Z,95549.58
2018-08-08T14:56:43.282Z,95553.36
2018-08-08T14:59:12.064Z,95550.34
2018-08-08T15:01:40.669Z,95553.48
2018-08-08T15:04:09.316Z,95555.61
2018-08-08T15:06:38.490Z,95547.99
2018-08-08T15:09:10.266Z,95556.80
2018-08-08T15:11:38.965Z,95569.69
2018-08-08T15:16:42.742Z,95565.48
2018-08-08T15:19:11.503Z,95558.84
2018-08-08T15:21:40.138Z,95555.73
2018-08-08T15:24:08.956Z,95549.71
2018-08-08T15:26:37.568Z,95550.67
2018-08-08T15:29:06.215Z,95549.43
2018-08-08T15:31:35.101Z,95549.67
2018-08-08T15:34:03.826Z,95545.45
2018-08-08T15:36:32.663Z,95549.67
2018-08-08T15:39:01.266Z,95543.56
2018-08-08T15:41:29.963Z,95544.63
2018-08-08T15:43:58.899Z,95544.40
2018-08-08T15:46:27.627Z,95544.98
2018-08-08T15:48:56.255Z,95539.36
2018-08-08T15:51:24.964Z,95543.75
2018-08-08T15:53:53.865Z,95544.45
2018-08-08T15:56:23.034Z,95540.80
2018-08-08T15:58:51.991Z,95539.75
2018-08-08T16:01:20.583Z,95540.73
2018-08-08T16:03:49.250Z,95549.34
2018-08-08T16:06:17.881Z,95549.56
2018-08-08T16:08:46.475Z,95546.84
2018-08-08T16:11:15.123Z,95550.11
2018-08-08T16:13:44.874Z,95547.72
2018-08-08T16:16:13.564Z,95551.64
2018-08-08T16:18:42.258Z,95552.50
2018-08-08T16:21:11.222Z,95551.98
2018-08-08T16:23:40.181Z,95553.56
2018-08-08T16:26:08.891Z,95550.00
2018-08-08T16:28:37.517Z,95552.23
2018-08-08T16:31:06.192Z,95552.52
2018-08-08T16:33:35.119Z,95550.39
2018-08-08T16:36:04.111Z,95557.00
2018-08-08T16:38:32.759Z,95552.30
2018-08-08T16:41:01.405Z,95553.36
2018-08-08T16:43:30.072Z,95553.31
2018-08-08T16:45:58.771Z,95554.78
2018-08-08T16:48:27.681Z,95556.69
2018-08-08T16:50:56.607Z,95560.43
2018-08-08T16:53:28.173Z,95570.77
2018-08-08T16:55:56.859Z,95567.20
2018-08-08T16:58:25.518Z,95570.11
2018-08-08T17:00:54.147Z,95567.53
2018-08-08T17:03:22.780Z,95561.62
2018-08-08T17:05:51.678Z,95565.94
2018-08-08T17:08:20.328Z,95571.48
2018-08-08T17:10:49.496Z,95578.41
2018-08-08T17:13:18.164Z,95576.50
2018-08-08T17:15:47.102Z,95581.16
2018-08-08T17:18:15.770Z,95577.61
2018-08-08T17:20:44.403Z,95577.67
2018-08-08T17:23:13.062Z,95580.95
2018-08-08T17:25:41.710Z,95578.30
2018-08-08T17:28:10.411Z,95589.22
2018-08-08T17:30:39.083Z,95591.80
2018-08-08T17:33:07.986Z,95588.53
2018-08-08T17:35:36.656Z,95589.31
2018-08-08T17:38:05.634Z,95585.06
2018-08-08T17:40:34.239Z,95590.75
2018-08-08T17:43:02.958Z,95585.88
2018-08-08T17:45:31.597Z,95589.87
2018-08-08T17:48:00.774Z,95593.48
2018-08-08T17:50:29.786Z,95592.84
2018-08-08T17:52:58.422Z,95598.77
2018-08-08T17:55:27.426Z,95445.25
2018-08-08T17:57:56.084Z,95594.30
2018-08-08T18:00:31.230Z,95596.13
2018-08-08T18:02:59.849Z,95595.39
2018-08-08T18:05:28.774Z,95604.38
2018-08-08T18:07:57.490Z,95600.11
2018-08-08T18:10:26.463Z,95607.56
2018-08-08T18:12:55.666Z,95611.98
2018-08-08T18:15:24.266Z,95618.82
2018-08-08T18:17:52.867Z,95607.18
2018-08-08T18:20:22.446Z,95609.39
2018-08-08T18:22:51.064Z,95616.54
2018-08-08T18:25:19.772Z,95614.56
2018-08-08T18:27:48.429Z,95621.64
2018-08-08T18:30:17.145Z,95623.69
2018-08-08T18:32:45.795Z,95624.00
2018-08-08T18:35:14.453Z,95628.00
2018-08-08T18:37:43.192Z,95618.28
2018-08-08T18:40:11.846Z,95634.27
2018-08-08T18:42:40.489Z,95631.38
2018-08-08T18:45:09.157Z,95617.55
2018-08-08T18:47:37.802Z,95636.59
2018-08-08T18:50:06.498Z,95638.39
2018-08-08T18:52:35.157Z,95638.59
2018-08-08T18:55:03.815Z,95643.13
2018-08-08T18:57:32.509Z,95644.75
2018-08-08T19:00:01.142Z,95643.11
2018-08-08T19:02:29.831Z,95643.02
2018-08-08T19:04:58.503Z,95652.28
2018-08-08T19:07:27.140Z,95655.08
2018-08-08T19:09:55.739Z,95661.92
2018-08-08T19:12:24.410Z,95663.56
2018-08-08T19:14:53.055Z,95650.22
2018-08-08T19:17:21.732Z,95652.22
2018-08-08T19:19:50.390Z,95655.20
2018-08-08T19:22:19.023Z,95658.59
2018-08-08T19:24:47.740Z,95661.02
2018-08-08T19:27:16.450Z,95663.38
2018-08-08T19:29:45.218Z,95659.95
2018-08-08T19:32:13.861Z,95657.05
2018-08-08T19:34:42.572Z,95649.96
2018-08-08T19:37:11.245Z,95653.88
2018-08-08T19:39:39.844Z,95654.89
2018-08-08T19:42:08.751Z,95653.05
2018-08-08T19:44:37.386Z,95652.72
2018-08-08T19:47:06.349Z,95649.48
2018-08-08T19:49:34.998Z,95652.55
2018-08-08T19:52:03.637Z,95649.51
2018-08-08T19:54:32.379Z,95653.36
2018-08-08T19:57:00.986Z,95653.43
2018-08-08T19:59:29.663Z,95646.19
2018-08-08T20:01:58.374Z,95640.92
2018-08-08T20:04:27.048Z,95643.45
2018-08-08T20:06:55.679Z,95646.21
2018-08-08T20:09:24.326Z,95648.97
2018-08-08T20:11:52.974Z,95647.27
2018-08-08T20:14:21.564Z,95646.89
2018-08-08T20:16:50.195Z,95643.03
2018-08-08T20:19:18.848Z,95653.25
2018-08-08T20:21:47.521Z,95645.43
2018-08-08T20:24:16.130Z,95648.03
2018-08-08T20:26:44.769Z,95646.92
2018-08-08T20:29:13.408Z,95653.45
2018-08-08T20:31:42.043Z,95656.19
2018-08-08T20:34:10.713Z,95665.20
2018-08-08T20:36:39.350Z,95667.95
2018-08-08T20:39:09.054Z,95664.98
2018-08-08T20:41:37.970Z,95661.59
2018-08-08T20:44:06.982Z,95663.41
2018-08-08T20:46:35.603Z,95671.87
2018-08-08T20:49:04.229Z,95669.12
2018-08-08T20:51:32.830Z,95674.10
2018-08-08T20:54:01.442Z,95674.59
2018-08-08T20:56:30.070Z,95677.16
2018-08-08T20:58:58.682Z,95677.63
2018-08-08T21:01:27.286Z,95676.06
2018-08-08T21:03:56.197Z,95685.95
2018-08-08T21:06:24.823Z,95688.34
2018-08-08T21:08:53.446Z,95683.25
2018-08-08T21:11:22.094Z,95662.66
2018-08-08T21:13:50.766Z,95683.76
2018-08-08T21:16:19.383Z,95694.22
2018-08-08T21:18:48.075Z,95684.83
2018-08-08T21:21:16.766Z,95680.77
2018-08-08T21:23:45.472Z,95680.22
2018-08-08T21:26:14.279Z,95685.13
2018-08-08T21:28:42.995Z,95691.45
2018-08-08T21:31:11.751Z,95686.94
2018-08-08T21:33:40.500Z,95683.63
2018-08-08T21:36:09.433Z,95694.03
2018-08-08T21:38:38.529Z,95700.72
2018-08-08T21:41:07.463Z,95707.61
2018-08-08T21:43:36.130Z,95707.81
2018-08-08T21:46:04.828Z,95718.84
2018-08-08T21:48:33.810Z,95713.53
2018-08-08T21:51:02.540Z,95712.34
2018-08-08T21:53:42.446Z,95709.80
2018-08-08T21:56:22.095Z,95710.02
2018-08-08T21:59:01.856Z,95708.80
2018-08-08T22:01:41.492Z,95705.88
2018-08-08T22:04:21.293Z,95706.11
2018-08-08T22:07:01.109Z,95706.48
2018-08-08T22:09:40.831Z,95700.78
2018-08-08T22:12:20.214Z,95702.56
2018-08-08T22:15:07.678Z,95701.00
2018-08-08T22:17:47.248Z,95703.13
2018-08-08T22:20:15.993Z,95706.45
2018-08-08T22:22:44.681Z,95698.60
2018-08-08T22:25:14.436Z,95698.62
2018-08-08T22:27:43.071Z,95707.65
2018-08-08T22:30:11.777Z,95715.09
2018-08-08T22:32:40.403Z,95712.74
2018-08-08T22:35:09.070Z,95705.66
2018-08-08T22:37:37.700Z,95713.12
2018-08-08T22:40:06.459Z,95710.77
2018-08-08T22:42:35.090Z,95705.09
2018-08-08T22:45:03.836Z,95705.68
2018-08-08T22:47:32.492Z,95710.77
2018-08-08T22:50:01.184Z,95708.23
2018-08-08T22:52:29.888Z,95710.17
2018-08-08T22:54:58.516Z,95710.17
2018-08-08T22:57:27.190Z,95702.13
2018-08-08T22:59:55.812Z,95714.11
2018-08-08T23:02:24.464Z,95715.48
2018-08-08T23:04:53.138Z,95712.74
2018-08-08T23:07:21.779Z,95710.77
2018-08-08T23:09:50.755Z,95716.05
2018-08-08T23:12:19.366Z,95721.34
2018-08-08T23:14:47.993Z,95713.28
2018-08-08T23:17:16.603Z,95718.02
2018-08-08T23:19:45.248Z,95722.52
2018-08-08T23:22:23.788Z,95722.09
2018-08-08T23:24:52.443Z,95720.13
2018-08-08T23:27:21.052Z,95717.78
2018-08-08T23:29:49.736Z,95663.16
2018-08-08T23:32:18.347Z,95728.36
2018-08-08T23:34:47.386Z,95726.02
2018-08-08T23:37:16.083Z,95724.43
2018-08-08T23:39:44.698Z,95721.50
2018-08-08T23:42:13.385Z,95723.45
2018-08-08T23:44:41.999Z,95721.70
2018-08-08T23:47:10.618Z,95719.33
2018-08-08T23:49:39.214Z,95720.09
2018-08-08T23:52:07.884Z,95727.16
2018-08-08T23:54:36.511Z,95727.74
2018-08-08T23:57:06.120Z,95725.92
2018-08-08T23:59:34.775Z,95727.09
